Time;durP1;ratioP1;P1;durP2;ratioP2;P2;SDS_P1;SDS_P2;PMS_P1;PMS_P2;Temp;Humidity;BMP_temperature;BMP_pressure;BME280_temperature;BME280_humidity;BME280_pressure;Samples;Min_cycle;Max_cycle;Signal;HPM_P1;HPM_P2
2024/02/19 00:01:38;;;;;;;;;;;18.40;45.80;;;;;;1591953;73;699;-73
2024/02/19 00:03:40;;;;;;;;;;;18.50;46.00;;;;;;1591600;73;791;-75
2024/02/19 00:05:42;;;;;;;;;;;18.40;45.80;;;;;;1591830;73;1946;-73
2024/02/19 00:07:46;;;;;;;;;;;18.40;45.80;;;;;;1591228;73;631;-72
2024/02/19 00:09:47;;;;;;;;;;;18.40;45.80;;;;;;1592952;73;1655;-74
2024/02/19 00:11:49;;;;;;;;;;;18.40;45.80;;;;;;1592089;73;741;-75
2024/02/19 00:13:51;;;;;;;;;;;18.60;46.00;;;;;;1593127;73;684;-74
2024/02/19 00:15:53;;;;;;;;;;;18.40;45.80;;;;;;1595943;73;661;-75
2024/02/19 00:17:55;;;;;;;;;;;18.50;45.90;;;;;;1593519;73;658;-74
2024/02/19 00:19:56;;;;;;;;;;;18.40;45.80;;;;;;1591961;73;1122;-74
2024/02/19 00:21:58;;;;;;;;;;;18.40;45.80;;;;;;1592783;73;622;-72
2024/02/19 00:24:00;;;;;;;;;;;18.40;45.80;;;;;;1597727;73;723;-74
2024/02/19 00:26:02;;;;;;;;;;;18.50;46.00;;;;;;1590434;73;1940;-71
2024/02/19 00:28:04;;;;;;;;;;;18.50;46.00;;;;;;1592187;73;653;-74
2024/02/19 00:30:06;;;;;;;;;;;18.40;45.80;;;;;;1590994;73;1146;-76
2024/02/19 00:32:08;;;;;;;;;;;18.40;45.80;;;;;;1584696;73;702;-74
2024/02/19 00:34:10;;;;;;;;;;;18.40;45.80;;;;;;1592602;73;702;-74
2024/02/19 00:36:12;;;;;;;;;;;18.40;45.80;;;;;;1589650;73;639;-74
2024/02/19 00:38:14;;;;;;;;;;;18.50;46.00;;;;;;1589421;73;654;-74
2024/02/19 00:40:16;;;;;;;;;;;18.40;45.80;;;;;;1588593;73;1117;-73
2024/02/19 00:42:18;;;;;;;;;;;18.40;45.80;;;;;;1594500;73;656;-73
2024/02/19 00:44:21;;;;;;;;;;;18.40;45.80;;;;;;1595510;73;634;-73
2024/02/19 00:46:23;;;;;;;;;;;18.50;46.00;;;;;;1593454;73;1914;-73
2024/02/19 00:48:24;;;;;;;;;;;18.40;45.80;;;;;;1593680;73;643;-74
2024/02/19 00:50:26;;;;;;;;;;;18.50;45.90;;;;;;1590185;73;675;-74
2024/02/19 00:52:28;;;;;;;;;;;18.40;45.80;;;;;;1592926;73;708;-72
2024/02/19 00:54:30;;;;;;;;;;;18.40;45.70;;;;;;1592047;73;594;-74
2024/02/19 00:56:32;;;;;;;;;;;18.40;45.70;;;;;;1590274;73;615;-72
2024/02/19 00:58:34;;;;;;;;;;;18.40;45.80;;;;;;1592408;73;1178;-75
2024/02/19 01:00:36;;;;;;;;;;;18.40;45.70;;;;;;1590111;73;656;-73
2024/02/19 01:02:38;;;;;;;;;;;18.50;45.90;;;;;;1591800;73;1470;-74
2024/02/19 01:04:40;;;;;;;;;;;18.50;45.90;;;;;;1590332;73;594;-73
2024/02/19 01:06:42;;;;;;;;;;;18.50;45.90;;;;;;1592008;73;1945;-71
2024/02/19 01:08:44;;;;;;;;;;;18.40;45.70;;;;;;1590943;73;1137;-71
2024/02/19 01:10:46;;;;;;;;;;;18.40;45.70;;;;;;1589769;73;567;-74
2024/02/19 01:12:48;;;;;;;;;;;18.40;45.70;;;;;;1591728;73;638;-73
2024/02/19 01:14:49;;;;;;;;;;;18.50;45.90;;;;;;1587435;73;634;-72
2024/02/19 01:16:51;;;;;;;;;;;18.50;45.90;;;;;;1584546;73;651;-72
2024/02/19 01:18:53;;;;;;;;;;;18.50;45.90;;;;;;1592092;73;1103;-71
2024/02/19 01:20:55;;;;;;;;;;;18.50;45.90;;;;;;1588200;73;630;-74
2024/02/19 01:22:58;;;;;;;;;;;18.40;45.70;;;;;;1588867;73;656;-74
2024/02/19 01:25:00;;;;;;;;;;;18.50;45.90;;;;;;1597420;73;1926;-74
2024/02/19 01:27:02;;;;;;;;;;;18.50;45.90;;;;;;1593281;73;670;-73
2024/02/19 01:29:04;;;;;;;;;;;18.40;45.80;;;;;;1593272;73;1138;-72
2024/02/19 01:31:07;;;;;;;;;;;18.40;45.70;;;;;;1589267;73;607;-75
2024/02/19 01:33:09;;;;;;;;;;;18.40;45.70;;;;;;1592544;73;707;-74
2024/02/19 01:35:11;;;;;;;;;;;18.40;45.80;;;;;;1591333;73;737;-74
2024/02/19 01:37:13;;;;;;;;;;;18.40;45.70;;;;;;1589994;73;676;-74
2024/02/19 01:39:20;;;;;;;;;;;18.50;45.90;;;;;;1593250;73;1141;-73
2024/02/19 01:41:18;;;;;;;;;;;18.40;45.80;;;;;;1592053;73;1604;-70
2024/02/19 01:43:20;;;;;;;;;;;18.40;45.80;;;;;;1591198;73;582;-71
2024/02/19 01:45:24;;;;;;;;;;;18.40;45.80;;;;;;1593984;73;1933;-72
2024/02/19 01:47:26;;;;;;;;;;;18.40;45.80;;;;;;1593034;73;576;-72
2024/02/19 01:49:28;;;;;;;;;;;18.40;45.70;;;;;;1592896;73;1069;-70
2024/02/19 01:51:30;;;;;;;;;;;18.40;45.70;;;;;;1591551;73;763;-74
2024/02/19 01:53:32;;;;;;;;;;;18.40;45.70;;;;;;1594241;73;729;-75
2024/02/19 01:55:34;;;;;;;;;;;18.40;45.70;;;;;;1592961;73;688;-74
2024/02/19 01:57:36;;;;;;;;;;;18.40;45.80;;;;;;1593279;73;673;-72
2024/02/19 01:59:38;;;;;;;;;;;18.40;45.80;;;;;;1592839;73;1438;-73
2024/02/19 02:01:40;;;;;;;;;;;18.50;45.90;;;;;;1592980;73;583;-72
2024/02/19 02:03:43;;;;;;;;;;;18.50;45.90;;;;;;1593309;73;661;-72
2024/02/19 02:05:46;;;;;;;;;;;18.50;45.90;;;;;;1599235;73;1912;-71
2024/02/19 02:07:48;;;;;;;;;;;18.40;45.70;;;;;;1590956;73;634;-74
2024/02/19 02:09:50;;;;;;;;;;;18.40;45.70;;;;;;1593203;73;1120;-74
2024/02/19 02:11:52;;;;;;;;;;;18.40;45.70;;;;;;1590436;73;663;-72
2024/02/19 02:13:54;;;;;;;;;;;18.40;45.70;;;;;;1586908;73;640;-73
2024/02/19 02:15:56;;;;;;;;;;;18.50;45.80;;;;;;1594770;73;594;-74
2024/02/19 02:17:57;;;;;;;;;;;18.50;45.80;;;;;;1587900;73;679;-76
2024/02/19 02:19:59;;;;;;;;;;;18.50;45.90;;;;;;1592916;73;1240;-74
2024/02/19 02:22:01;;;;;;;;;;;18.40;45.70;;;;;;1592707;73;741;-74
2024/02/19 02:24:05;;;;;;;;;;;18.50;45.80;;;;;;1587358;73;714;-73
2024/02/19 02:26:06;;;;;;;;;;;18.40;45.70;;;;;;1590373;73;1910;-73
2024/02/19 02:28:08;;;;;;;;;;;18.50;45.90;;;;;;1590164;73;637;-74
2024/02/19 02:30:10;;;;;;;;;;;18.50;45.80;;;;;;1592679;73;1105;-72
2024/02/19 02:32:12;;;;;;;;;;;18.40;45.80;;;;;;1591147;73;867;-72
2024/02/19 02:34:14;;;;;;;;;;;18.40;45.70;;;;;;1596830;73;745;-76
2024/02/19 02:36:16;;;;;;;;;;;18.40;45.70;;;;;;1592124;73;895;-72
2024/02/19 02:38:18;;;;;;;;;;;18.50;45.80;;;;;;1591947;73;667;-74
2024/02/19 02:40:20;;;;;;;;;;;18.40;45.70;;;;;;1591201;73;1109;-73
2024/02/19 02:42:22;;;;;;;;;;;18.40;45.70;;;;;;1591761;73;633;-71
2024/02/19 02:44:24;;;;;;;;;;;18.40;45.70;;;;;;1597346;73;660;-73
2024/02/19 02:46:26;;;;;;;;;;;18.40;45.70;;;;;;1591907;73;1903;-74
2024/02/19 02:48:28;;;;;;;;;;;18.50;45.70;;;;;;1594152;73;1178;-70
2024/02/19 02:50:30;;;;;;;;;;;18.40;45.60;;;;;;1590856;73;607;-75
2024/02/19 02:52:32;;;;;;;;;;;18.50;45.80;;;;;;1592801;73;577;-74
2024/02/19 02:54:34;;;;;;;;;;;18.40;45.70;;;;;;1602319;73;1418;-73
2024/02/19 02:56:36;;;;;;;;;;;18.50;45.80;;;;;;1590368;73;727;-75
2024/02/19 02:58:38;;;;;;;;;;;18.40;45.70;;;;;;1590913;73;1203;-74
2024/02/19 03:00:39;;;;;;;;;;;18.50;45.80;;;;;;1598456;73;691;-73
2024/02/19 03:02:41;;;;;;;;;;;18.40;45.70;;;;;;1590755;73;742;-71
2024/02/19 03:04:43;;;;;;;;;;;18.40;45.70;;;;;;1595184;73;619;-71
2024/02/19 03:06:45;;;;;;;;;;;18.40;45.70;;;;;;1591677;73;1934;-73
2024/02/19 03:08:47;;;;;;;;;;;18.50;45.80;;;;;;1588003;73;1148;-75
2024/02/19 03:10:49;;;;;;;;;;;18.50;45.80;;;;;;1594541;73;645;-75
2024/02/19 03:12:51;;;;;;;;;;;18.40;45.60;;;;;;1592046;73;654;-73
2024/02/19 03:14:52;;;;;;;;;;;18.40;45.70;;;;;;1592144;73;1001;-72
2024/02/19 03:16:55;;;;;;;;;;;18.50;45.70;;;;;;1593881;73;750;-72
2024/02/19 03:18:56;;;;;;;;;;;18.50;45.80;;;;;;1599561;72;1141;-73
2024/02/19 03:20:58;;;;;;;;;;;18.40;45.60;;;;;;1594007;73;660;-73
2024/02/19 03:23:01;;;;;;;;;;;18.40;45.60;;;;;;1591661;73;758;-72
2024/02/19 03:25:04;;;;;;;;;;;18.40;45.60;;;;;;1598741;73;799;-73
2024/02/19 03:27:06;;;;;;;;;;;18.40;45.60;;;;;;1590528;73;1905;-73
2024/02/19 03:29:14;;;;;;;;;;;18.40;45.60;;;;;;1589736;73;1125;-71
2024/02/19 03:31:16;;;;;;;;;;;18.40;45.60;;;;;;1592411;73;707;-71
2024/02/19 03:33:17;;;;;;;;;;;18.50;45.80;;;;;;1589110;73;663;-71
2024/02/19 03:35:19;;;;;;;;;;;18.40;45.70;;;;;;1593753;73;661;-74
2024/02/19 03:37:22;;;;;;;;;;;18.40;45.60;;;;;;1590510;73;767;-71
2024/02/19 03:39:24;;;;;;;;;;;18.40;45.70;;;;;;1589396;73;1155;-73
2024/02/19 03:41:25;;;;;;;;;;;18.40;45.60;;;;;;1593390;73;562;-73
2024/02/19 03:43:29;;;;;;;;;;;18.50;45.70;;;;;;1594506;73;681;-76
2024/02/19 03:45:32;;;;;;;;;;;18.40;45.60;;;;;;1594974;73;1742;-74
2024/02/19 03:47:34;;;;;;;;;;;18.40;45.60;;;;;;1594531;73;1917;-73
2024/02/19 03:49:36;;;;;;;;;;;18.50;45.80;;;;;;1593804;73;1161;-75
2024/02/19 03:51:38;;;;;;;;;;;18.50;45.80;;;;;;1590270;73;1510;-73
2024/02/19 03:53:40;;;;;;;;;;;18.40;45.60;;;;;;1593333;73;855;-72
2024/02/19 03:55:42;;;;;;;;;;;18.50;45.70;;;;;;1592914;73;667;-73
2024/02/19 03:57:44;;;;;;;;;;;18.50;45.70;;;;;;1592015;73;848;-74
2024/02/19 03:59:46;;;;;;;;;;;18.40;45.60;;;;;;1593565;73;1170;-70
2024/02/19 04:01:48;;;;;;;;;;;18.40;45.60;;;;;;1593606;73;713;-74
2024/02/19 04:03:50;;;;;;;;;;;18.50;45.70;;;;;;1588912;73;633;-72
2024/02/19 04:05:51;;;;;;;;;;;18.40;45.50;;;;;;1594310;73;1934;-74
2024/02/19 04:07:53;;;;;;;;;;;18.40;45.60;;;;;;1591435;73;778;-75
2024/02/19 04:09:55;;;;;;;;;;;18.40;45.50;;;;;;1592965;73;1131;-74
2024/02/19 04:11:57;;;;;;;;;;;18.40;45.60;;;;;;1593813;73;754;-75
2024/02/19 04:13:59;;;;;;;;;;;18.40;45.60;;;;;;1594494;73;672;-73
2024/02/19 04:16:01;;;;;;;;;;;18.40;45.60;;;;;;1594090;73;677;-71
2024/02/19 04:18:03;;;;;;;;;;;18.50;45.70;;;;;;1591632;73;737;-74
2024/02/19 04:20:05;;;;;;;;;;;18.40;45.60;;;;;;1593651;73;1185;-73
2024/02/19 04:22:07;;;;;;;;;;;18.40;45.60;;;;;;1590062;73;585;-71
2024/02/19 04:24:09;;;;;;;;;;;18.40;45.60;;;;;;1599855;73;691;-73
2024/02/19 04:26:11;;;;;;;;;;;18.40;45.60;;;;;;1595302;73;1936;-73
2024/02/19 04:28:12;;;;;;;;;;;18.40;45.60;;;;;;1589594;73;733;-73
2024/02/19 04:30:14;;;;;;;;;;;18.40;45.60;;;;;;1590446;73;1211;-73
2024/02/19 04:32:16;;;;;;;;;;;18.40;45.60;;;;;;1595508;73;660;-74
2024/02/19 04:34:18;;;;;;;;;;;18.50;45.70;;;;;;1593016;73;694;-72
2024/02/19 04:36:20;;;;;;;;;;;18.50;45.70;;;;;;1595009;73;583;-74
2024/02/19 04:38:22;;;;;;;;;;;18.40;45.60;;;;;;1592160;73;835;-71
2024/02/19 04:40:24;;;;;;;;;;;18.40;45.60;;;;;;1592683;73;1144;-73
2024/02/19 04:42:26;;;;;;;;;;;18.40;45.60;;;;;;1592323;73;656;-74
2024/02/19 04:44:27;;;;;;;;;;;18.40;45.60;;;;;;1593867;73;756;-74
2024/02/19 04:46:29;;;;;;;;;;;18.40;45.60;;;;;;1591186;73;1937;-71
2024/02/19 04:48:33;;;;;;;;;;;18.50;45.70;;;;;;1587859;73;1174;-73
2024/02/19 04:50:35;;;;;;;;;;;18.40;45.60;;;;;;1592054;73;2009;-72
2024/02/19 04:52:37;;;;;;;;;;;18.40;45.60;;;;;;1594498;73;721;-73
2024/02/19 04:54:39;;;;;;;;;;;18.40;45.50;;;;;;1597800;73;660;-72
2024/02/19 04:56:41;;;;;;;;;;;18.40;45.60;;;;;;1592190;73;676;-74
2024/02/19 04:58:43;;;;;;;;;;;18.40;45.50;;;;;;1592036;73;1122;-76
2024/02/19 05:00:45;;;;;;;;;;;18.40;45.50;;;;;;1591028;73;726;-74
2024/02/19 05:02:47;;;;;;;;;;;18.40;45.50;;;;;;1594505;73;670;-71
2024/02/19 05:04:50;;;;;;;;;;;18.50;45.70;;;;;;1594781;73;601;-73
2024/02/19 05:06:53;;;;;;;;;;;18.50;45.70;;;;;;1590615;73;1941;-72
2024/02/19 05:08:55;;;;;;;;;;;18.40;45.50;;;;;;1591656;73;1165;-76
2024/02/19 05:10:57;;;;;;;;;;;18.50;45.70;;;;;;1594366;73;676;-76
2024/02/19 05:12:59;;;;;;;;;;;18.40;45.60;;;;;;1591989;73;773;-74
2024/02/19 05:15:01;;;;;;;;;;;18.40;45.60;;;;;;1599330;73;728;-72
2024/02/19 05:17:03;;;;;;;;;;;18.40;45.50;;;;;;1590445;73;775;-70
2024/02/19 05:19:05;;;;;;;;;;;18.40;45.60;;;;;;1593552;73;1120;-71
2024/02/19 05:21:07;;;;;;;;;;;18.40;45.50;;;;;;1594372;73;712;-71
2024/02/19 05:23:09;;;;;;;;;;;18.40;45.60;;;;;;1594177;73;668;-72
2024/02/19 05:25:11;;;;;;;;;;;18.40;45.50;;;;;;1596366;73;674;-72
2024/02/19 05:27:13;;;;;;;;;;;18.40;45.50;;;;;;1594596;73;1937;-73
2024/02/19 05:29:17;;;;;;;;;;;18.40;45.50;;;;;;1593917;73;1178;-73
2024/02/19 05:31:20;;;;;;;;;;;18.40;45.60;;;;;;1594559;73;576;-74
2024/02/19 05:33:22;;;;;;;;;;;18.50;45.70;;;;;;1591743;73;1788;-74
2024/02/19 05:35:24;;;;;;;;;;;18.40;45.50;;;;;;1590972;73;712;-73
2024/02/19 05:37:26;;;;;;;;;;;18.40;45.50;;;;;;1590102;73;680;-73
2024/02/19 05:39:28;;;;;;;;;;;18.40;45.50;;;;;;1592870;73;1130;-74
2024/02/19 05:41:30;;;;;;;;;;;18.40;45.50;;;;;;1595527;73;721;-74
2024/02/19 05:43:32;;;;;;;;;;;18.40;45.50;;;;;;1594667;73;1482;-72
2024/02/19 05:45:35;;;;;;;;;;;18.40;45.50;;;;;;1595681;73;640;-75
2024/02/19 05:47:37;;;;;;;;;;;18.40;45.50;;;;;;1593725;73;1948;-73
2024/02/19 05:49:40;;;;;;;;;;;18.40;45.50;;;;;;1593701;73;1136;-73
2024/02/19 05:51:42;;;;;;;;;;;18.40;45.50;;;;;;1594534;73;1107;-73
2024/02/19 05:53:44;;;;;;;;;;;18.40;45.60;;;;;;1596687;73;828;-73
2024/02/19 05:55:46;;;;;;;;;;;18.40;45.50;;;;;;1592439;73;846;-74
2024/02/19 05:57:48;;;;;;;;;;;18.40;45.50;;;;;;1591738;73;754;-74
2024/02/19 05:59:50;;;;;;;;;;;18.40;45.50;;;;;;1592717;73;1155;-73
2024/02/19 06:01:52;;;;;;;;;;;18.40;45.50;;;;;;1589769;73;525;-71
2024/02/19 06:03:54;;;;;;;;;;;18.40;45.50;;;;;;1588711;73;719;-72
2024/02/19 06:05:56;;;;;;;;;;;18.40;45.50;;;;;;1592417;73;772;-74
2024/02/19 06:07:58;;;;;;;;;;;18.40;45.50;;;;;;1586799;73;1944;-74
2024/02/19 06:09:59;;;;;;;;;;;18.50;45.60;;;;;;1592976;73;1153;-72
2024/02/19 06:12:02;;;;;;;;;;;18.40;45.50;;;;;;1591544;73;685;-75
2024/02/19 06:14:04;;;;;;;;;;;18.40;45.50;;;;;;1590738;73;712;-69
2024/02/19 06:16:06;;;;;;;;;;;18.40;45.50;;;;;;1589628;73;771;-73
2024/02/19 06:18:08;;;;;;;;;;;18.40;45.50;;;;;;1592081;73;680;-73
2024/02/19 06:20:10;;;;;;;;;;;18.40;45.50;;;;;;1594369;73;1111;-74
2024/02/19 06:22:12;;;;;;;;;;;18.40;45.60;;;;;;1591895;73;570;-74
2024/02/19 06:24:14;;;;;;;;;;;18.40;45.50;;;;;;1599309;73;653;-75
2024/02/19 06:26:16;;;;;;;;;;;18.40;45.50;;;;;;1593331;73;779;-77
2024/02/19 06:28:18;;;;;;;;;;;18.40;45.50;;;;;;1592506;73;1945;-74
2024/02/19 06:30:21;;;;;;;;;;;18.40;45.50;;;;;;1591208;73;1087;-72
2024/02/19 06:32:23;;;;;;;;;;;18.40;45.50;;;;;;1592454;73;749;-74
2024/02/19 06:34:26;;;;;;;;;;;18.40;45.50;;;;;;1588851;73;809;-74
2024/02/19 06:36:28;;;;;;;;;;;18.40;45.50;;;;;;1592684;73;875;-73
2024/02/19 06:38:30;;;;;;;;;;;18.40;45.50;;;;;;1592008;73;1103;-72
2024/02/19 06:40:32;;;;;;;;;;;18.40;45.50;;;;;;1591210;73;1546;-73
2024/02/19 06:42:34;;;;;;;;;;;18.40;45.50;;;;;;1592699;73;642;-72
2024/02/19 06:44:36;;;;;;;;;;;18.40;45.50;;;;;;1595427;73;721;-74
2024/02/19 06:46:38;;;;;;;;;;;18.40;45.50;;;;;;1592163;73;566;-74
2024/02/19 06:48:42;;;;;;;;;;;18.30;45.50;;;;;;1592370;73;1949;-74
2024/02/19 06:50:44;;;;;;;;;;;18.40;45.50;;;;;;1592832;73;679;-75
2024/02/19 06:52:46;;;;;;;;;;;18.40;45.50;;;;;;1591254;73;695;-75
2024/02/19 06:54:48;;;;;;;;;;;18.40;45.50;;;;;;1597731;73;675;-72
2024/02/19 06:56:50;;;;;;;;;;;18.50;45.60;;;;;;1589049;73;651;-75
2024/02/19 06:58:52;;;;;;;;;;;18.40;45.50;;;;;;1591370;73;1100;-73
2024/02/19 07:00:54;;;;;;;;;;;18.40;45.50;;;;;;1591873;73;562;-71
2024/02/19 07:02:56;;;;;;;;;;;18.40;45.50;;;;;;1588806;73;742;-73
2024/02/19 07:04:57;;;;;;;;;;;18.40;45.50;;;;;;1593955;73;657;-74
2024/02/19 07:06:59;;;;;;;;;;;18.40;45.60;;;;;;1591229;73;1945;-74
2024/02/19 07:09:01;;;;;;;;;;;18.40;45.60;;;;;;1591683;73;1114;-76
2024/02/19 07:11:03;;;;;;;;;;;18.40;45.60;;;;;;1592568;73;685;-74
2024/02/19 07:13:05;;;;;;;;;;;18.40;45.60;;;;;;1591724;73;773;-71
2024/02/19 07:15:07;;;;;;;;;;;18.40;45.50;;;;;;1591749;73;715;-74
2024/02/19 07:17:10;;;;;;;;;;;18.40;45.50;;;;;;1589965;73;656;-72
2024/02/19 07:19:12;;;;;;;;;;;18.40;45.50;;;;;;1593326;73;1142;-71
2024/02/19 07:21:14;;;;;;;;;;;18.40;45.50;;;;;;1593325;73;653;-73
2024/02/19 07:23:16;;;;;;;;;;;18.40;45.50;;;;;;1595097;73;782;-74
2024/02/19 07:25:18;;;;;;;;;;;18.40;45.50;;;;;;1598195;73;655;-74
2024/02/19 07:27:21;;;;;;;;;;;18.40;45.50;;;;;;1594226;73;1917;-72
2024/02/19 07:29:23;;;;;;;;;;;18.40;45.50;;;;;;1593933;73;1174;-75
2024/02/19 07:31:25;;;;;;;;;;;18.40;45.50;;;;;;1596071;73;800;-75
2024/02/19 07:33:29;;;;;;;;;;;18.40;45.50;;;;;;1587986;73;747;-73
2024/02/19 07:35:31;;;;;;;;;;;18.40;45.50;;;;;;1594991;73;1518;-74
2024/02/19 07:37:33;;;;;;;;;;;18.40;45.50;;;;;;1592028;73;660;-74
2024/02/19 07:39:39;;;;;;;;;;;18.40;45.50;;;;;;1594454;73;1110;-74
2024/02/19 07:41:38;;;;;;;;;;;18.40;45.50;;;;;;1594286;73;1681;-71
2024/02/19 07:43:40;;;;;;;;;;;18.40;45.50;;;;;;1594540;73;884;-74
2024/02/19 07:45:42;;;;;;;;;;;18.40;45.50;;;;;;1591601;73;761;-72
2024/02/19 07:47:44;;;;;;;;;;;18.40;45.50;;;;;;1591882;73;1931;-74
2024/02/19 07:49:46;;;;;;;;;;;18.40;45.50;;;;;;1592232;73;1114;-74
2024/02/19 07:51:48;;;;;;;;;;;18.40;45.50;;;;;;1590862;73;661;-73
2024/02/19 07:53:50;;;;;;;;;;;18.40;45.50;;;;;;1593661;73;717;-74
2024/02/19 07:55:53;;;;;;;;;;;18.40;45.50;;;;;;1592964;73;596;-73
2024/02/19 07:57:55;;;;;;;;;;;18.40;45.50;;;;;;1590000;73;1495;-75
2024/02/19 07:59:57;;;;;;;;;;;18.40;45.50;;;;;;1593801;73;1192;-74
2024/02/19 08:02:00;;;;;;;;;;;18.40;45.50;;;;;;1592114;73;723;-74
2024/02/19 08:04:01;;;;;;;;;;;18.40;45.50;;;;;;1591857;73;612;-74
2024/02/19 08:06:03;;;;;;;;;;;18.40;45.50;;;;;;1588377;73;550;-75
2024/02/19 08:08:05;;;;;;;;;;;18.50;45.70;;;;;;1593355;73;1940;-74
2024/02/19 08:10:07;;;;;;;;;;;18.40;45.50;;;;;;1593936;73;1126;-73
2024/02/19 08:12:09;;;;;;;;;;;18.40;45.50;;;;;;1592170;73;694;-76
2024/02/19 08:14:11;;;;;;;;;;;18.40;45.50;;;;;;1593626;73;577;-75
2024/02/19 08:16:13;;;;;;;;;;;18.40;45.50;;;;;;1602764;73;754;-74
2024/02/19 08:18:16;;;;;;;;;;;18.50;45.60;;;;;;1594915;72;645;-74
2024/02/19 08:20:18;;;;;;;;;;;18.40;45.50;;;;;;1593233;73;1123;-74
2024/02/19 08:22:20;;;;;;;;;;;18.40;45.50;;;;;;1587874;73;661;-75
2024/02/19 08:24:22;;;;;;;;;;;18.40;45.50;;;;;;1595988;73;755;-72
2024/02/19 08:26:25;;;;;;;;;;;18.40;45.50;;;;;;1590466;73;737;-75
2024/02/19 08:28:27;;;;;;;;;;;18.40;45.30;;;;;;1592157;73;1925;-77
2024/02/19 08:30:29;;;;;;;;;;;18.40;45.50;;;;;;1589904;73;731;-74
2024/02/19 08:32:31;;;;;;;;;;;18.40;45.50;;;;;;1592390;73;1418;-76
2024/02/19 08:34:33;;;;;;;;;;;18.40;45.50;;;;;;1594191;73;774;-76
2024/02/19 08:36:36;;;;;;;;;;;18.40;45.50;;;;;;1598670;73;743;-76
2024/02/19 08:38:38;;;;;;;;;;;18.40;45.50;;;;;;1594126;73;2059;-76
2024/02/19 08:40:40;;;;;;;;;;;18.40;45.50;;;;;;1594753;73;673;-74
2024/02/19 08:42:42;;;;;;;;;;;18.40;45.50;;;;;;1595329;73;767;-75
2024/02/19 08:44:44;;;;;;;;;;;18.40;45.50;;;;;;1594502;73;962;-75
2024/02/19 08:46:45;;;;;;;;;;;18.40;45.50;;;;;;1601765;73;700;-77
2024/02/19 08:48:48;;;;;;;;;;;18.40;45.60;;;;;;1594361;73;1928;-76
2024/02/19 08:50:52;;;;;;;;;;;18.40;45.50;;;;;;1594544;73;771;-73
2024/02/19 08:52:53;;;;;;;;;;;18.40;45.50;;;;;;1594401;73;1631;-77
2024/02/19 08:54:56;;;;;;;;;;;18.40;45.50;;;;;;1602635;73;611;-75
2024/02/19 08:57:02;;;;;;;;;;;18.40;45.50;;;;;;1596870;73;687;-75
2024/02/19 08:59:04;;;;;;;;;;;18.40;45.60;;;;;;1590980;73;1145;-77
2024/02/19 09:01:10;;;;;;;;;;;18.40;45.60;;;;;;1590511;73;1522;-75
2024/02/19 09:03:08;;;;;;;;;;;18.40;45.60;;;;;;1602074;73;1482;-75
2024/02/19 09:05:10;;;;;;;;;;;18.40;45.50;;;;;;1594579;73;661;-76
2024/02/19 09:07:14;;;;;;;;;;;18.40;45.50;;;;;;1593664;73;679;-77
2024/02/19 09:09:16;;;;;;;;;;;18.40;45.50;;;;;;1594495;73;1909;-75
2024/02/19 09:11:18;;;;;;;;;;;18.40;45.50;;;;;;1593232;73;692;-78
2024/02/19 09:13:20;;;;;;;;;;;18.40;45.50;;;;;;1595370;73;672;-77
2024/02/19 09:15:22;;;;;;;;;;;18.40;45.60;;;;;;1595814;73;657;-77
2024/02/19 09:17:24;;;;;;;;;;;18.40;45.50;;;;;;1593633;73;681;-76
2024/02/19 09:19:26;;;;;;;;;;;18.40;45.50;;;;;;1595409;73;1091;-77
2024/02/19 09:21:28;;;;;;;;;;;18.40;45.50;;;;;;1592972;73;783;-76
2024/02/19 09:23:29;;;;;;;;;;;18.40;45.50;;;;;;1597180;73;704;-77
2024/02/19 09:25:32;;;;;;;;;;;18.40;45.60;;;;;;1592259;73;632;-76
2024/02/19 09:27:35;;;;;;;;;;;18.40;45.60;;;;;;1587616;73;733;-75
2024/02/19 09:29:37;;;;;;;;;;;18.40;45.60;;;;;;1584421;73;1926;-74
2024/02/19 09:31:39;;;;;;;;;;;18.40;45.60;;;;;;1590727;73;749;-74
2024/02/19 09:33:41;;;;;;;;;;;18.40;45.50;;;;;;1594407;73;757;-75
2024/02/19 09:35:43;;;;;;;;;;;18.40;45.60;;;;;;1597193;73;666;-74
2024/02/19 09:37:45;;;;;;;;;;;18.40;45.60;;;;;;1594632;73;765;-75
2024/02/19 09:39:50;;;;;;;;;;;18.40;45.60;;;;;;1596256;73;1127;-77
2024/02/19 09:41:50;;;;;;;;;;;18.40;45.60;;;;;;1595044;73;1685;-78
2024/02/19 09:43:52;;;;;;;;;;;18.40;45.70;;;;;;1596321;73;726;-76
2024/02/19 09:45:54;;;;;;;;;;;18.50;45.80;;;;;;1595430;72;687;-77
2024/02/19 09:47:57;;;;;;;;;;;18.40;45.70;;;;;;1594471;73;1932;-76
2024/02/19 09:49:59;;;;;;;;;;;18.40;45.70;;;;;;1596280;73;1133;-78
2024/02/19 09:52:02;;;;;;;;;;;18.40;45.70;;;;;;1591125;73;687;-77
2024/02/19 09:54:05;;;;;;;;;;;18.40;45.70;;;;;;1596340;73;697;-76
2024/02/19 09:56:08;;;;;;;;;;;18.40;45.70;;;;;;1590093;73;746;-75
2024/02/19 09:58:10;;;;;;;;;;;18.40;45.70;;;;;;1595683;73;787;-76
2024/02/19 10:00:14;;;;;;;;;;;18.40;45.70;;;;;;1595519;73;1118;-77
2024/02/19 10:02:19;;;;;;;;;;;18.40;45.70;;;;;;1599282;73;674;-76
2024/02/19 10:04:20;;;;;;;;;;;18.40;45.70;;;;;;1601300;73;1978;-78
2024/02/19 10:06:22;;;;;;;;;;;18.50;45.80;;;;;;1596695;73;622;-78
2024/02/19 10:08:24;;;;;;;;;;;18.40;45.70;;;;;;1561344;74;1937;-77
2024/02/19 10:10:28;;;;;;;;;;;18.40;45.70;;;;;;1587043;73;1164;-75
2024/02/19 10:12:30;;;;;;;;;;;18.50;45.80;;;;;;1601035;73;897;-77
2024/02/19 10:14:32;;;;;;;;;;;18.40;45.70;;;;;;1594362;73;684;-76
2024/02/19 10:16:33;;;;;;;;;;;18.40;45.70;;;;;;1597203;73;696;-77
2024/02/19 10:18:35;;;;;;;;;;;18.40;45.70;;;;;;1595069;73;1191;-77
2024/02/19 10:20:39;;;;;;;;;;;18.40;45.70;;;;;;1593093;73;699;-77
2024/02/19 10:22:41;;;;;;;;;;;18.40;45.70;;;;;;1596039;73;1141;-77
2024/02/19 10:24:42;;;;;;;;;;;18.40;45.80;;;;;;1600815;73;1568;-75
2024/02/19 10:26:47;;;;;;;;;;;18.40;45.70;;;;;;1597136;73;755;-78
2024/02/19 10:28:51;;;;;;;;;;;18.40;45.70;;;;;;1590688;73;1906;-76
2024/02/19 10:30:53;;;;;;;;;;;18.50;45.90;;;;;;1593771;73;1274;-77
2024/02/19 10:32:54;;;;;;;;;;;18.40;45.70;;;;;;1594765;73;673;-76
2024/02/19 10:34:56;;;;;;;;;;;18.40;45.70;;;;;;1594292;73;688;-76
2024/02/19 10:36:58;;;;;;;;;;;18.40;45.80;;;;;;1595989;73;696;-76
2024/02/19 10:39:00;;;;;;;;;;;18.50;45.90;;;;;;1595245;73;1132;-77
2024/02/19 10:41:02;;;;;;;;;;;18.40;45.80;;;;;;1594131;73;674;-77
2024/02/19 10:43:05;;;;;;;;;;;18.50;45.90;;;;;;1596720;73;689;-77
2024/02/19 10:45:08;;;;;;;;;;;18.50;45.90;;;;;;1598558;73;817;-76
2024/02/19 10:47:10;;;;;;;;;;;18.40;45.80;;;;;;1594437;73;778;-77
2024/02/19 10:49:17;;;;;;;;;;;18.40;45.70;;;;;;1597826;73;1926;-77
2024/02/19 10:51:17;;;;;;;;;;;18.40;45.70;;;;;;1596449;73;1606;-77
2024/02/19 10:53:19;;;;;;;;;;;18.40;45.70;;;;;;1597646;73;1118;-75
2024/02/19 10:55:22;;;;;;;;;;;18.40;45.70;;;;;;1600302;73;730;-77
2024/02/19 10:57:26;;;;;;;;;;;18.50;45.90;;;;;;1592797;73;654;-77
2024/02/19 10:59:28;;;;;;;;;;;18.50;45.90;;;;;;1587433;73;1213;-75
2024/02/19 11:01:43;;;;;;;;;;;18.50;45.90;;;;;;1586365;73;1340;-74
2024/02/19 11:03:45;;;;;;;;;;;18.40;45.70;;;;;;1602690;73;683;-77
2024/02/19 11:05:47;;;;;;;;;;;18.40;45.70;;;;;;1594646;73;1076;-76
2024/02/19 11:07:49;;;;;;;;;;;18.50;45.90;;;;;;1592249;73;721;-76
2024/02/19 11:09:55;;;;;;;;;;;18.50;45.80;;;;;;1590965;73;1944;-74
2024/02/19 11:11:56;;;;;;;;;;;18.40;45.70;;;;;;1595270;73;1148;-76
2024/02/19 11:13:59;;;;;;;;;;;18.50;45.80;;;;;;1594618;73;929;-76
2024/02/19 11:16:02;;;;;;;;;;;18.50;45.90;;;;;;1601896;73;990;-76
2024/02/19 11:18:16;;;;;;;;;;;18.50;45.90;;;;;;1595447;73;652;-77
2024/02/19 11:20:19;;;;;;;;;;;18.50;45.90;;;;;;1596072;73;1518;-74
2024/02/19 11:22:30;;;;;;;;;;;18.50;45.90;;;;;;1593638;73;1907;-76
2024/02/19 11:24:25;;;;;;;;;;;18.40;45.70;;;;;;1591364;73;1105;-76
2024/02/19 11:26:28;;;;;;;;;;;18.50;45.90;;;;;;1598809;73;728;-77
2024/02/19 11:28:32;;;;;;;;;;;18.40;45.70;;;;;;1596423;73;1907;-73
2024/02/19 11:30:33;;;;;;;;;;;18.50;45.80;;;;;;1595073;73;1015;-75
2024/02/19 11:32:36;;;;;;;;;;;18.40;45.70;;;;;;1595945;73;650;-76
2024/02/19 11:34:38;;;;;;;;;;;18.40;45.70;;;;;;1588718;73;704;-74
2024/02/19 11:36:42;;;;;;;;;;;18.40;45.80;;;;;;1599995;73;724;-76
2024/02/19 11:38:43;;;;;;;;;;;18.50;45.80;;;;;;1592324;73;1128;-77
2024/02/19 11:40:45;;;;;;;;;;;18.50;45.80;;;;;;1592724;73;715;-77
2024/02/19 11:42:49;;;;;;;;;;;18.50;45.90;;;;;;1593105;73;680;-75
2024/02/19 11:44:51;;;;;;;;;;;18.40;45.80;;;;;;1595672;73;918;-76
2024/02/19 11:46:54;;;;;;;;;;;18.50;45.90;;;;;;1596547;73;636;-75
2024/02/19 11:48:56;;;;;;;;;;;18.50;45.90;;;;;;1590414;73;1927;-75
2024/02/19 11:50:58;;;;;;;;;;;18.40;45.70;;;;;;1594320;73;674;-76
2024/02/19 11:53:00;;;;;;;;;;;18.40;45.80;;;;;;1588790;73;721;-74
2024/02/19 11:55:02;;;;;;;;;;;18.40;45.80;;;;;;1584244;73;678;-74
2024/02/19 11:57:09;;;;;;;;;;;18.50;46.00;;;;;;1607066;73;983;-74
2024/02/19 11:59:08;;;;;;;;;;;18.50;46.00;;;;;;1587650;73;1552;-71
2024/02/19 12:01:10;;;;;;;;;;;18.40;45.90;;;;;;1593710;73;730;-74
2024/02/19 12:03:13;;;;;;;;;;;18.50;46.10;;;;;;1596955;73;745;-77
2024/02/19 12:05:16;;;;;;;;;;;18.50;46.10;;;;;;1592578;73;664;-76
2024/02/19 12:07:18;;;;;;;;;;;18.50;46.30;;;;;;1592637;73;693;-76
2024/02/19 12:09:20;;;;;;;;;;;18.50;46.30;;;;;;1591488;73;1948;-74